This is the latest recevied weather packets stored in our database for station/object N7SWJ. If no packets are shown the sender has not sent any weather packets the latest 10 day(s).
| Time | Temp. | Humidity | Pressure | Rain* | Wind** | Luminosity | Snow |
|---|---|---|---|---|---|---|---|
| 1778209532 | 13.33° C | 64% | 1015.8 hPa | 0 mm | - | 0 W/m² | - |
| 1778209230 | 13.89° C | 61% | 1015.4 hPa | 0 mm | - | 0 W/m² | - |
| 1778208925 | 13.89° C | 60% | 1015.4 hPa | 0 mm | - | 0 W/m² | - |
| 1778208623 | 13.89° C | 60% | 1015.4 hPa | 0 mm | - | 0 W/m² | - |
| 1778208319 | 13.89° C | 60% | 1015.3 hPa | 0 mm | - | 0 W/m² | - |
| 1778208015 | 13.89° C | 61% | 1015 hPa | 0 mm | - | 0 W/m² | - |
| 1778207712 | 13.89° C | 63% | 1015.3 hPa | 0 mm | - | 0 W/m² | - |
| 1778207410 | 13.89° C | 64% | 1015.1 hPa | 0 mm | - | 0 W/m² | - |
| 1778207105 | 13.33° C | 64% | 1015.2 hPa | 0 mm | - | 0 W/m² | - |
| 1778206802 | 13.89° C | 66% | 1015.2 hPa | 0 mm | - | 0 W/m² | - |
| 1778206498 | 13.89° C | 65% | 1015.5 hPa | 0 mm | - | 0 W/m² | - |
| 1778206195 | 14.44° C | 61% | 1015.7 hPa | 0 mm | - | 0 W/m² | - |
| 1778205892 | 15° C | 60% | 1015.7 hPa | 0 mm | - | 0 W/m² | - |
| 1778205589 | 16.11° C | 51% | 1015.3 hPa | 0 mm | - | 0 W/m² | - |
| 1778205287 | 16.11° C | 48% | 1015.1 hPa | 0 mm | - | 1 W/m² | - |
| 1778204984 | 16.11° C | 47% | 1014.6 hPa | 0 mm | - | 2 W/m² | - |
| 1778204680 | 16.11° C | 47% | 1014.5 hPa | 0 mm | - | 2 W/m² | - |
| 1778204376 | 16.11° C | 47% | 1014.5 hPa | 0 mm | - | 2 W/m² | - |
| 1778204072 | 16.11° C | 48% | 1014.5 hPa | 0 mm | - | 4 W/m² | - |
| 1778203770 | 15.56° C | 47% | 1014.6 hPa | 0 mm | - | 8 W/m² | - |
| 1778203467 | 15.56° C | 47% | 1014.3 hPa | 0 mm | - | 13 W/m² | - |
| 1778203164 | 16.11° C | 44% | 1014.6 hPa | 0 mm | - | 19 W/m² | - |
| 1778202862 | 16.11° C | 45% | 1014.3 hPa | 0 mm | - | 26 W/m² | - |
| 1778202559 | 16.11° C | 45% | 1014.3 hPa | 0 mm | - | 33 W/m² | - |
| 1778202256 | 16.67° C | 44% | 1014.3 hPa | 0 mm | - | 42 W/m² | - |
* Rain latest hour (hover to see other rain measurements)
** Current wind speed in m/s (hover to see current wind gust speed)